sensor_id;sensor_type;location;lat;lon;timestamp;temperature;humidity
73572;DHT22;61854;48.510;-2.770;2023-04-25T00:00:17;8.60;94.10
73572;DHT22;61854;48.510;-2.770;2023-04-25T00:02:42;8.60;94.10
73572;DHT22;61854;48.510;-2.770;2023-04-25T00:05:08;8.50;94.10
73572;DHT22;61854;48.510;-2.770;2023-04-25T00:07:34;8.50;94.00
73572;DHT22;61854;48.510;-2.770;2023-04-25T00:10:00;8.60;94.10
73572;DHT22;61854;48.510;-2.770;2023-04-25T00:12:25;8.50;94.10
73572;DHT22;61854;48.510;-2.770;2023-04-25T00:14:54;8.50;94.10
73572;DHT22;61854;48.510;-2.770;2023-04-25T00:17:22;8.50;94.10
73572;DHT22;61854;48.510;-2.770;2023-04-25T00:19:49;8.50;94.10
73572;DHT22;61854;48.510;-2.770;2023-04-25T00:22:15;8.60;94.00
73572;DHT22;61854;48.510;-2.770;2023-04-25T00:24:41;8.50;94.00
73572;DHT22;61854;48.510;-2.770;2023-04-25T00:27:07;8.50;94.00
73572;DHT22;61854;48.510;-2.770;2023-04-25T00:29:32;8.50;94.00
73572;DHT22;61854;48.510;-2.770;2023-04-25T00:31:58;8.50;94.10
73572;DHT22;61854;48.510;-2.770;2023-04-25T00:34:23;8.50;94.10
73572;DHT22;61854;48.510;-2.770;2023-04-25T00:36:49;8.50;94.10
73572;DHT22;61854;48.510;-2.770;2023-04-25T00:39:15;8.40;94.10
73572;DHT22;61854;48.510;-2.770;2023-04-25T00:41:40;8.40;94.10
73572;DHT22;61854;48.510;-2.770;2023-04-25T00:44:06;8.40;94.20
73572;DHT22;61854;48.510;-2.770;2023-04-25T00:46:32;8.40;94.30
73572;DHT22;61854;48.510;-2.770;2023-04-25T00:48:58;8.40;94.40
73572;DHT22;61854;48.510;-2.770;2023-04-25T00:51:24;8.30;94.50
73572;DHT22;61854;48.510;-2.770;2023-04-25T00:53:50;8.40;94.50
73572;DHT22;61854;48.510;-2.770;2023-04-25T00:56:16;8.30;94.50
73572;DHT22;61854;48.510;-2.770;2023-04-25T00:58:41;8.30;94.50
73572;DHT22;61854;48.510;-2.770;2023-04-25T01:01:08;8.30;94.60
73572;DHT22;61854;48.510;-2.770;2023-04-25T01:03:34;8.20;94.60
73572;DHT22;61854;48.510;-2.770;2023-04-25T01:06:09;8.20;94.70
73572;DHT22;61854;48.510;-2.770;2023-04-25T01:08:35;8.20;94.70
73572;DHT22;61854;48.510;-2.770;2023-04-25T01:11:01;8.20;94.70
73572;DHT22;61854;48.510;-2.770;2023-04-25T01:13:26;8.20;94.80
73572;DHT22;61854;48.510;-2.770;2023-04-25T01:15:52;8.20;94.80
73572;DHT22;61854;48.510;-2.770;2023-04-25T01:18:18;8.20;94.90
73572;DHT22;61854;48.510;-2.770;2023-04-25T01:20:44;8.20;94.90
73572;DHT22;61854;48.510;-2.770;2023-04-25T01:23:10;8.30;95.40
73572;DHT22;61854;48.510;-2.770;2023-04-25T01:25:36;8.20;94.90
73572;DHT22;61854;48.510;-2.770;2023-04-25T01:28:02;8.20;95.00
73572;DHT22;61854;48.510;-2.770;2023-04-25T01:30:27;8.20;95.00
73572;DHT22;61854;48.510;-2.770;2023-04-25T01:32:55;8.20;95.10
73572;DHT22;61854;48.510;-2.770;2023-04-25T01:35:23;8.20;95.20
73572;DHT22;61854;48.510;-2.770;2023-04-25T01:37:49;8.20;95.20
73572;DHT22;61854;48.510;-2.770;2023-04-25T01:40:15;8.10;95.20
73572;DHT22;61854;48.510;-2.770;2023-04-25T01:42:41;8.10;95.20
73572;DHT22;61854;48.510;-2.770;2023-04-25T01:45:08;8.10;95.40
73572;DHT22;61854;48.510;-2.770;2023-04-25T01:47:34;8.20;95.50
73572;DHT22;61854;48.510;-2.770;2023-04-25T01:50:03;8.20;95.50
73572;DHT22;61854;48.510;-2.770;2023-04-25T01:52:28;8.20;95.40
73572;DHT22;61854;48.510;-2.770;2023-04-25T01:54:54;8.20;95.50
73572;DHT22;61854;48.510;-2.770;2023-04-25T01:57:20;8.20;95.50
73572;DHT22;61854;48.510;-2.770;2023-04-25T01:59:45;8.20;95.60
73572;DHT22;61854;48.510;-2.770;2023-04-25T02:02:11;8.30;95.50
73572;DHT22;61854;48.510;-2.770;2023-04-25T02:04:37;8.30;95.50
73572;DHT22;61854;48.510;-2.770;2023-04-25T02:07:03;8.30;95.50
73572;DHT22;61854;48.510;-2.770;2023-04-25T02:09:28;8.30;95.60
73572;DHT22;61854;48.510;-2.770;2023-04-25T02:11:54;8.20;95.50
73572;DHT22;61854;48.510;-2.770;2023-04-25T02:14:19;8.20;95.60
73572;DHT22;61854;48.510;-2.770;2023-04-25T02:16:45;8.30;95.70
73572;DHT22;61854;48.510;-2.770;2023-04-25T02:19:11;8.30;95.60
73572;DHT22;61854;48.510;-2.770;2023-04-25T02:21:36;8.20;95.60
73572;DHT22;61854;48.510;-2.770;2023-04-25T02:24:02;8.20;95.60
73572;DHT22;61854;48.510;-2.770;2023-04-25T02:26:28;8.20;95.80
73572;DHT22;61854;48.510;-2.770;2023-04-25T02:28:54;8.20;95.80
73572;DHT22;61854;48.510;-2.770;2023-04-25T02:31:20;8.20;95.90
73572;DHT22;61854;48.510;-2.770;2023-04-25T02:33:45;8.20;96.00
73572;DHT22;61854;48.510;-2.770;2023-04-25T02:36:11;8.20;96.00
73572;DHT22;61854;48.510;-2.770;2023-04-25T02:38:36;8.20;96.00
73572;DHT22;61854;48.510;-2.770;2023-04-25T02:41:02;8.20;95.90
73572;DHT22;61854;48.510;-2.770;2023-04-25T02:43:27;8.20;96.00
73572;DHT22;61854;48.510;-2.770;2023-04-25T02:45:53;8.20;96.00
73572;DHT22;61854;48.510;-2.770;2023-04-25T02:48:18;8.20;96.10
73572;DHT22;61854;48.510;-2.770;2023-04-25T02:50:44;8.20;96.20
73572;DHT22;61854;48.510;-2.770;2023-04-25T02:53:10;8.30;96.20
73572;DHT22;61854;48.510;-2.770;2023-04-25T02:55:35;8.30;96.10
73572;DHT22;61854;48.510;-2.770;2023-04-25T02:58:01;8.20;96.00
73572;DHT22;61854;48.510;-2.770;2023-04-25T03:00:26;8.20;96.10
73572;DHT22;61854;48.510;-2.770;2023-04-25T03:02:53;8.30;96.30
73572;DHT22;61854;48.510;-2.770;2023-04-25T03:05:18;8.30;96.30
73572;DHT22;61854;48.510;-2.770;2023-04-25T03:07:44;8.30;96.40
73572;DHT22;61854;48.510;-2.770;2023-04-25T03:10:11;8.30;96.40
73572;DHT22;61854;48.510;-2.770;2023-04-25T03:12:36;8.40;96.30
73572;DHT22;61854;48.510;-2.770;2023-04-25T03:15:02;8.30;96.20
73572;DHT22;61854;48.510;-2.770;2023-04-25T03:17:28;8.40;96.20
73572;DHT22;61854;48.510;-2.770;2023-04-25T03:19:53;8.40;96.30
73572;DHT22;61854;48.510;-2.770;2023-04-25T03:22:19;8.40;96.80
73572;DHT22;61854;48.510;-2.770;2023-04-25T03:24:44;8.40;96.40
73572;DHT22;61854;48.510;-2.770;2023-04-25T03:27:10;8.40;96.40
73572;DHT22;61854;48.510;-2.770;2023-04-25T03:29:35;8.40;96.50
73572;DHT22;61854;48.510;-2.770;2023-04-25T03:32:01;8.50;96.50
73572;DHT22;61854;48.510;-2.770;2023-04-25T03:34:27;8.50;96.40
73572;DHT22;61854;48.510;-2.770;2023-04-25T03:36:53;8.50;96.40
73572;DHT22;61854;48.510;-2.770;2023-04-25T03:39:18;8.60;96.30
73572;DHT22;61854;48.510;-2.770;2023-04-25T03:41:44;8.60;96.30
73572;DHT22;61854;48.510;-2.770;2023-04-25T03:44:09;8.60;96.20
73572;DHT22;61854;48.510;-2.770;2023-04-25T03:46:35;8.60;96.30
73572;DHT22;61854;48.510;-2.770;2023-04-25T03:49:00;8.70;96.30
73572;DHT22;61854;48.510;-2.770;2023-04-25T03:51:26;8.70;96.30
73572;DHT22;61854;48.510;-2.770;2023-04-25T03:53:52;8.70;96.30
73572;DHT22;61854;48.510;-2.770;2023-04-25T03:56:17;8.70;96.20
73572;DHT22;61854;48.510;-2.770;2023-04-25T03:58:43;8.70;96.10
73572;DHT22;61854;48.510;-2.770;2023-04-25T04:01:09;8.80;96.20
73572;DHT22;61854;48.510;-2.770;2023-04-25T04:03:35;8.70;96.10
73572;DHT22;61854;48.510;-2.770;2023-04-25T04:06:01;8.80;96.10
73572;DHT22;61854;48.510;-2.770;2023-04-25T04:08:28;8.70;96.00
73572;DHT22;61854;48.510;-2.770;2023-04-25T04:10:53;8.80;96.00
73572;DHT22;61854;48.510;-2.770;2023-04-25T04:13:19;8.70;95.90
73572;DHT22;61854;48.510;-2.770;2023-04-25T04:15:44;8.80;95.90
73572;DHT22;61854;48.510;-2.770;2023-04-25T04:18:10;8.80;96.10
73572;DHT22;61854;48.510;-2.770;2023-04-25T04:20:35;8.80;96.30
73572;DHT22;61854;48.510;-2.770;2023-04-25T04:23:01;8.80;96.20
73572;DHT22;61854;48.510;-2.770;2023-04-25T04:25:27;8.80;96.20
73572;DHT22;61854;48.510;-2.770;2023-04-25T04:27:52;8.80;96.10
73572;DHT22;61854;48.510;-2.770;2023-04-25T04:30:23;8.80;96.10
73572;DHT22;61854;48.510;-2.770;2023-04-25T04:32:55;8.80;96.10
73572;DHT22;61854;48.510;-2.770;2023-04-25T04:35:21;8.80;96.00
73572;DHT22;61854;48.510;-2.770;2023-04-25T04:37:46;8.80;96.20
73572;DHT22;61854;48.510;-2.770;2023-04-25T04:40:13;8.80;96.30
73572;DHT22;61854;48.510;-2.770;2023-04-25T04:42:41;8.80;96.30
73572;DHT22;61854;48.510;-2.770;2023-04-25T04:45:06;8.80;96.40
73572;DHT22;61854;48.510;-2.770;2023-04-25T04:47:32;8.90;96.50
73572;DHT22;61854;48.510;-2.770;2023-04-25T04:49:59;8.90;96.50
73572;DHT22;61854;48.510;-2.770;2023-04-25T04:52:24;8.90;96.50
73572;DHT22;61854;48.510;-2.770;2023-04-25T04:54:50;8.90;96.30
73572;DHT22;61854;48.510;-2.770;2023-04-25T04:57:15;8.90;96.10
73572;DHT22;61854;48.510;-2.770;2023-04-25T04:59:41;8.90;96.00
73572;DHT22;61854;48.510;-2.770;2023-04-25T05:02:07;8.90;96.10
73572;DHT22;61854;48.510;-2.770;2023-04-25T05:04:32;8.90;96.00
73572;DHT22;61854;48.510;-2.770;2023-04-25T05:06:58;8.90;96.00
73572;DHT22;61854;48.510;-2.770;2023-04-25T05:09:24;8.80;96.00
73572;DHT22;61854;48.510;-2.770;2023-04-25T05:11:52;8.80;96.20
73572;DHT22;61854;48.510;-2.770;2023-04-25T05:14:17;8.80;96.30
73572;DHT22;61854;48.510;-2.770;2023-04-25T05:16:43;8.80;96.40
73572;DHT22;61854;48.510;-2.770;2023-04-25T05:19:09;8.80;96.40
73572;DHT22;61854;48.510;-2.770;2023-04-25T05:21:34;8.90;96.50
73572;DHT22;61854;48.510;-2.770;2023-04-25T05:24:03;8.90;96.60
73572;DHT22;61854;48.510;-2.770;2023-04-25T05:26:29;9.00;96.70
73572;DHT22;61854;48.510;-2.770;2023-04-25T05:28:59;9.00;96.70
73572;DHT22;61854;48.510;-2.770;2023-04-25T05:31:25;9.10;96.80
73572;DHT22;61854;48.510;-2.770;2023-04-25T05:33:51;9.20;96.80
73572;DHT22;61854;48.510;-2.770;2023-04-25T05:36:16;9.20;96.70
73572;DHT22;61854;48.510;-2.770;2023-04-25T05:38:42;9.30;96.70
73572;DHT22;61854;48.510;-2.770;2023-04-25T05:41:07;9.40;96.70
73572;DHT22;61854;48.510;-2.770;2023-04-25T05:43:33;9.40;96.70
73572;DHT22;61854;48.510;-2.770;2023-04-25T05:45:58;9.50;96.50
73572;DHT22;61854;48.510;-2.770;2023-04-25T05:48:24;9.50;96.40
73572;DHT22;61854;48.510;-2.770;2023-04-25T05:50:49;9.50;96.40
73572;DHT22;61854;48.510;-2.770;2023-04-25T05:53:17;9.60;96.30
73572;DHT22;61854;48.510;-2.770;2023-04-25T05:55:42;9.60;96.20
73572;DHT22;61854;48.510;-2.770;2023-04-25T05:58:08;9.70;96.10
73572;DHT22;61854;48.510;-2.770;2023-04-25T06:00:34;9.70;96.00
73572;DHT22;61854;48.510;-2.770;2023-04-25T06:02:59;9.80;95.90
73572;DHT22;61854;48.510;-2.770;2023-04-25T06:05:25;9.80;95.80
73572;DHT22;61854;48.510;-2.770;2023-04-25T06:07:50;9.90;95.70
73572;DHT22;61854;48.510;-2.770;2023-04-25T06:10:16;9.90;95.50
73572;DHT22;61854;48.510;-2.770;2023-04-25T06:12:42;9.90;95.40
73572;DHT22;61854;48.510;-2.770;2023-04-25T06:15:07;10.00;95.10
73572;DHT22;61854;48.510;-2.770;2023-04-25T06:17:33;10.10;94.90
73572;DHT22;61854;48.510;-2.770;2023-04-25T06:19:58;10.20;94.80
73572;DHT22;61854;48.510;-2.770;2023-04-25T06:22:24;10.20;94.70
73572;DHT22;61854;48.510;-2.770;2023-04-25T06:24:49;10.30;94.70
73572;DHT22;61854;48.510;-2.770;2023-04-25T06:27:15;10.40;94.30
73572;DHT22;61854;48.510;-2.770;2023-04-25T06:29:41;10.40;93.90
73572;DHT22;61854;48.510;-2.770;2023-04-25T06:32:06;10.40;93.70
73572;DHT22;61854;48.510;-2.770;2023-04-25T06:34:32;10.40;93.70
73572;DHT22;61854;48.510;-2.770;2023-04-25T06:36:57;10.40;93.60
73572;DHT22;61854;48.510;-2.770;2023-04-25T06:39:23;10.40;93.80
73572;DHT22;61854;48.510;-2.770;2023-04-25T06:41:50;10.50;93.80
73572;DHT22;61854;48.510;-2.770;2023-04-25T06:44:15;10.50;93.70
73572;DHT22;61854;48.510;-2.770;2023-04-25T06:46:41;10.50;93.50
73572;DHT22;61854;48.510;-2.770;2023-04-25T06:49:06;10.60;93.40
73572;DHT22;61854;48.510;-2.770;2023-04-25T06:51:32;10.60;93.30
73572;DHT22;61854;48.510;-2.770;2023-04-25T06:53:57;10.70;93.20
73572;DHT22;61854;48.510;-2.770;2023-04-25T06:56:23;10.70;93.00
73572;DHT22;61854;48.510;-2.770;2023-04-25T06:58:49;10.70;92.80
73572;DHT22;61854;48.510;-2.770;2023-04-25T07:01:14;10.80;92.90
73572;DHT22;61854;48.510;-2.770;2023-04-25T07:03:40;10.80;92.80
73572;DHT22;61854;48.510;-2.770;2023-04-25T07:06:06;10.80;92.70
73572;DHT22;61854;48.510;-2.770;2023-04-25T07:08:32;10.80;92.60
73572;DHT22;61854;48.510;-2.770;2023-04-25T07:10:57;10.80;92.50
73572;DHT22;61854;48.510;-2.770;2023-04-25T07:13:23;10.70;92.50
73572;DHT22;61854;48.510;-2.770;2023-04-25T07:15:48;10.80;92.50
73572;DHT22;61854;48.510;-2.770;2023-04-25T07:18:14;10.80;92.50
73572;DHT22;61854;48.510;-2.770;2023-04-25T07:20:39;10.80;92.50
73572;DHT22;61854;48.510;-2.770;2023-04-25T07:23:05;10.80;92.60
73572;DHT22;61854;48.510;-2.770;2023-04-25T07:25:30;10.90;92.40
73572;DHT22;61854;48.510;-2.770;2023-04-25T07:27:56;10.90;92.20
73572;DHT22;61854;48.510;-2.770;2023-04-25T07:30:22;11.00;91.80
73572;DHT22;61854;48.510;-2.770;2023-04-25T07:32:48;11.00;91.90
73572;DHT22;61854;48.510;-2.770;2023-04-25T07:35:13;11.00;91.80
73572;DHT22;61854;48.510;-2.770;2023-04-25T07:37:39;11.00;91.50
73572;DHT22;61854;48.510;-2.770;2023-04-25T07:40:05;11.00;91.40
73572;DHT22;61854;48.510;-2.770;2023-04-25T07:42:31;11.00;91.00
73572;DHT22;61854;48.510;-2.770;2023-04-25T07:44:56;10.90;91.10
73572;DHT22;61854;48.510;-2.770;2023-04-25T07:47:22;10.90;91.20
73572;DHT22;61854;48.510;-2.770;2023-04-25T07:49:47;10.80;91.40
73572;DHT22;61854;48.510;-2.770;2023-04-25T07:52:13;10.80;91.50
73572;DHT22;61854;48.510;-2.770;2023-04-25T07:54:39;10.80;91.70
73572;DHT22;61854;48.510;-2.770;2023-04-25T07:57:04;10.80;91.70
73572;DHT22;61854;48.510;-2.770;2023-04-25T07:59:31;10.80;91.60
73572;DHT22;61854;48.510;-2.770;2023-04-25T08:01:57;10.80;91.40
73572;DHT22;61854;48.510;-2.770;2023-04-25T08:04:23;10.70;91.50
73572;DHT22;61854;48.510;-2.770;2023-04-25T08:06:48;10.70;91.50
73572;DHT22;61854;48.510;-2.770;2023-04-25T08:09:14;10.70;91.80
73572;DHT22;61854;48.510;-2.770;2023-04-25T08:11:40;10.70;91.90
73572;DHT22;61854;48.510;-2.770;2023-04-25T08:14:07;10.70;92.00
73572;DHT22;61854;48.510;-2.770;2023-04-25T08:16:32;10.70;91.90
73572;DHT22;61854;48.510;-2.770;2023-04-25T08:18:59;10.80;91.50
73572;DHT22;61854;48.510;-2.770;2023-04-25T08:21:25;10.80;91.30
73572;DHT22;61854;48.510;-2.770;2023-04-25T08:23:52;10.80;91.40
73572;DHT22;61854;48.510;-2.770;2023-04-25T08:26:18;10.80;91.40
73572;DHT22;61854;48.510;-2.770;2023-04-25T08:28:43;10.70;91.50
73572;DHT22;61854;48.510;-2.770;2023-04-25T08:31:09;10.70;91.60
73572;DHT22;61854;48.510;-2.770;2023-04-25T08:33:34;10.70;91.40
73572;DHT22;61854;48.510;-2.770;2023-04-25T08:36:00;10.70;91.40
73572;DHT22;61854;48.510;-2.770;2023-04-25T08:38:25;10.70;91.20
73572;DHT22;61854;48.510;-2.770;2023-04-25T08:40:51;10.70;91.30
73572;DHT22;61854;48.510;-2.770;2023-04-25T08:43:18;10.80;91.40
73572;DHT22;61854;48.510;-2.770;2023-04-25T08:45:44;10.90;91.30
73572;DHT22;61854;48.510;-2.770;2023-04-25T08:48:10;11.10;91.40
73572;DHT22;61854;48.510;-2.770;2023-04-25T08:50:39;11.20;91.00
73572;DHT22;61854;48.510;-2.770;2023-04-25T08:53:06;11.30;90.30
73572;DHT22;61854;48.510;-2.770;2023-04-25T08:55:33;11.40;88.50
73572;DHT22;61854;48.510;-2.770;2023-04-25T08:57:59;11.40;88.00
73572;DHT22;61854;48.510;-2.770;2023-04-25T09:00:26;11.50;87.50
73572;DHT22;61854;48.510;-2.770;2023-04-25T09:02:51;11.50;87.50
73572;DHT22;61854;48.510;-2.770;2023-04-25T09:05:18;11.60;87.70
73572;DHT22;61854;48.510;-2.770;2023-04-25T09:07:43;11.70;86.90
73572;DHT22;61854;48.510;-2.770;2023-04-25T09:10:09;11.70;86.40
73572;DHT22;61854;48.510;-2.770;2023-04-25T09:12:35;11.70;85.50
73572;DHT22;61854;48.510;-2.770;2023-04-25T09:15:01;11.70;85.10
73572;DHT22;61854;48.510;-2.770;2023-04-25T09:17:27;11.80;82.90
73572;DHT22;61854;48.510;-2.770;2023-04-25T09:19:53;11.80;82.50
73572;DHT22;61854;48.510;-2.770;2023-04-25T09:22:19;11.80;83.10
73572;DHT22;61854;48.510;-2.770;2023-04-25T09:24:47;11.80;83.10
73572;DHT22;61854;48.510;-2.770;2023-04-25T09:27:18;11.80;83.50
73572;DHT22;61854;48.510;-2.770;2023-04-25T09:29:45;11.80;82.50
73572;DHT22;61854;48.510;-2.770;2023-04-25T09:34:41;11.90;83.50
73572;DHT22;61854;48.510;-2.770;2023-04-25T09:37:09;12.00;82.50
73572;DHT22;61854;48.510;-2.770;2023-04-25T09:39:38;12.20;82.50
73572;DHT22;61854;48.510;-2.770;2023-04-25T09:42:04;12.40;79.20
73572;DHT22;61854;48.510;-2.770;2023-04-25T09:44:30;12.50;77.00
73572;DHT22;61854;48.510;-2.770;2023-04-25T09:46:56;12.60;76.30
73572;DHT22;61854;48.510;-2.770;2023-04-25T09:49:22;12.60;76.00
73572;DHT22;61854;48.510;-2.770;2023-04-25T09:51:57;12.60;77.50
73572;DHT22;61854;48.510;-2.770;2023-04-25T09:54:23;12.60;77.30
73572;DHT22;61854;48.510;-2.770;2023-04-25T09:56:49;12.70;74.90
73572;DHT22;61854;48.510;-2.770;2023-04-25T09:59:16;12.60;76.00
73572;DHT22;61854;48.510;-2.770;2023-04-25T10:01:43;12.70;74.90
73572;DHT22;61854;48.510;-2.770;2023-04-25T10:04:10;12.70;74.60
73572;DHT22;61854;48.510;-2.770;2023-04-25T10:06:36;12.80;74.60
73572;DHT22;61854;48.510;-2.770;2023-04-25T10:09:02;12.80;76.30
73572;DHT22;61854;48.510;-2.770;2023-04-25T10:11:29;13.00;76.10
73572;DHT22;61854;48.510;-2.770;2023-04-25T10:13:55;13.10;74.80
73572;DHT22;61854;48.510;-2.770;2023-04-25T10:16:21;13.20;73.30
73572;DHT22;61854;48.510;-2.770;2023-04-25T10:18:47;13.10;73.30
73572;DHT22;61854;48.510;-2.770;2023-04-25T10:21:13;13.10;73.90
73572;DHT22;61854;48.510;-2.770;2023-04-25T10:23:40;13.20;72.90
73572;DHT22;61854;48.510;-2.770;2023-04-25T10:26:06;13.20;72.10
73572;DHT22;61854;48.510;-2.770;2023-04-25T10:28:54;13.10;72.50
73572;DHT22;61854;48.510;-2.770;2023-04-25T10:31:18;13.00;73.50
73572;DHT22;61854;48.510;-2.770;2023-04-25T10:33:43;12.90;74.60
73572;DHT22;61854;48.510;-2.770;2023-04-25T10:38:35;12.60;76.50
73572;DHT22;61854;48.510;-2.770;2023-04-25T10:41:04;12.60;77.60
73572;DHT22;61854;48.510;-2.770;2023-04-25T10:45:55;12.70;78.00
73572;DHT22;61854;48.510;-2.770;2023-04-25T10:48:43;12.80;78.50
73572;DHT22;61854;48.510;-2.770;2023-04-25T10:51:10;12.80;78.40
73572;DHT22;61854;48.510;-2.770;2023-04-25T10:53:36;12.80;78.90
73572;DHT22;61854;48.510;-2.770;2023-04-25T10:58:41;12.80;77.50
73572;DHT22;61854;48.510;-2.770;2023-04-25T11:01:06;12.80;76.90
73572;DHT22;61854;48.510;-2.770;2023-04-25T11:03:32;12.80;76.90
73572;DHT22;61854;48.510;-2.770;2023-04-25T11:05:57;12.90;74.20
73572;DHT22;61854;48.510;-2.770;2023-04-25T11:08:31;12.90;73.60
73572;DHT22;61854;48.510;-2.770;2023-04-25T11:11:01;13.10;73.10
73572;DHT22;61854;48.510;-2.770;2023-04-25T11:13:29;13.20;73.10
73572;DHT22;61854;48.510;-2.770;2023-04-25T11:15:55;13.20;72.20
73572;DHT22;61854;48.510;-2.770;2023-04-25T11:18:21;13.20;71.80
73572;DHT22;61854;48.510;-2.770;2023-04-25T11:20:47;13.00;72.50
73572;DHT22;61854;48.510;-2.770;2023-04-25T11:23:13;12.90;72.90
73572;DHT22;61854;48.510;-2.770;2023-04-25T11:25:40;12.80;72.20
73572;DHT22;61854;48.510;-2.770;2023-04-25T11:28:06;12.70;73.20
73572;DHT22;61854;48.510;-2.770;2023-04-25T11:30:31;12.70;72.70
73572;DHT22;61854;48.510;-2.770;2023-04-25T11:32:57;12.70;73.00
73572;DHT22;61854;48.510;-2.770;2023-04-25T11:35:23;12.70;73.30
73572;DHT22;61854;48.510;-2.770;2023-04-25T11:37:50;12.80;72.80
73572;DHT22;61854;48.510;-2.770;2023-04-25T11:40:16;12.80;71.80
73572;DHT22;61854;48.510;-2.770;2023-04-25T11:42:45;12.70;72.40
73572;DHT22;61854;48.510;-2.770;2023-04-25T11:45:11;12.70;72.30
73572;DHT22;61854;48.510;-2.770;2023-04-25T11:47:37;12.80;72.20
73572;DHT22;61854;48.510;-2.770;2023-04-25T11:50:03;12.80;71.80
73572;DHT22;61854;48.510;-2.770;2023-04-25T11:53:02;12.90;71.80
73572;DHT22;61854;48.510;-2.770;2023-04-25T11:55:20;12.90;71.50
73572;DHT22;61854;48.510;-2.770;2023-04-25T11:57:49;13.00;71.50
73572;DHT22;61854;48.510;-2.770;2023-04-25T12:00:16;13.10;71.90
73572;DHT22;61854;48.510;-2.770;2023-04-25T12:02:42;13.10;72.20
73572;DHT22;61854;48.510;-2.770;2023-04-25T12:05:09;13.20;71.10
73572;DHT22;61854;48.510;-2.770;2023-04-25T12:07:35;13.20;71.30
73572;DHT22;61854;48.510;-2.770;2023-04-25T12:10:04;13.20;71.30
73572;DHT22;61854;48.510;-2.770;2023-04-25T12:12:33;13.30;70.10
73572;DHT22;61854;48.510;-2.770;2023-04-25T12:15:07;13.40;70.50
73572;DHT22;61854;48.510;-2.770;2023-04-25T12:17:34;13.50;69.50
73572;DHT22;61854;48.510;-2.770;2023-04-25T12:20:05;13.50;68.90
73572;DHT22;61854;48.510;-2.770;2023-04-25T12:22:30;13.60;68.80
73572;DHT22;61854;48.510;-2.770;2023-04-25T12:24:57;13.70;68.40
73572;DHT22;61854;48.510;-2.770;2023-04-25T12:27:23;13.70;68.10
73572;DHT22;61854;48.510;-2.770;2023-04-25T12:29:54;13.70;67.50
73572;DHT22;61854;48.510;-2.770;2023-04-25T12:32:20;13.60;67.80
73572;DHT22;61854;48.510;-2.770;2023-04-25T12:34:46;13.60;68.40
73572;DHT22;61854;48.510;-2.770;2023-04-25T12:37:14;13.70;68.80
73572;DHT22;61854;48.510;-2.770;2023-04-25T12:39:40;13.70;68.60
73572;DHT22;61854;48.510;-2.770;2023-04-25T12:42:06;13.80;68.30
73572;DHT22;61854;48.510;-2.770;2023-04-25T12:44:33;13.90;67.90
73572;DHT22;61854;48.510;-2.770;2023-04-25T12:46:59;14.00;67.70
73572;DHT22;61854;48.510;-2.770;2023-04-25T12:49:25;14.10;67.20
73572;DHT22;61854;48.510;-2.770;2023-04-25T12:51:53;14.20;67.50
73572;DHT22;61854;48.510;-2.770;2023-04-25T12:54:19;14.20;67.90
73572;DHT22;61854;48.510;-2.770;2023-04-25T12:56:44;14.30;67.40
73572;DHT22;61854;48.510;-2.770;2023-04-25T12:59:11;14.20;66.90
73572;DHT22;61854;48.510;-2.770;2023-04-25T13:01:37;14.00;67.20
73572;DHT22;61854;48.510;-2.770;2023-04-25T13:04:02;13.90;68.00
73572;DHT22;61854;48.510;-2.770;2023-04-25T13:06:28;13.80;68.30
73572;DHT22;61854;48.510;-2.770;2023-04-25T13:08:55;13.70;67.10
73572;DHT22;61854;48.510;-2.770;2023-04-25T13:11:20;13.60;67.70
73572;DHT22;61854;48.510;-2.770;2023-04-25T13:13:46;13.60;69.50
73572;DHT22;61854;48.510;-2.770;2023-04-25T13:16:12;13.60;68.60
73572;DHT22;61854;48.510;-2.770;2023-04-25T13:18:39;13.70;67.90
73572;DHT22;61854;48.510;-2.770;2023-04-25T13:21:05;13.70;68.10
73572;DHT22;61854;48.510;-2.770;2023-04-25T13:23:31;13.80;68.00
73572;DHT22;61854;48.510;-2.770;2023-04-25T13:25:56;13.90;67.80
73572;DHT22;61854;48.510;-2.770;2023-04-25T13:28:26;13.80;67.50
73572;DHT22;61854;48.510;-2.770;2023-04-25T13:30:51;13.90;67.30
73572;DHT22;61854;48.510;-2.770;2023-04-25T13:33:17;13.90;66.60
73572;DHT22;61854;48.510;-2.770;2023-04-25T13:35:43;13.90;66.40
73572;DHT22;61854;48.510;-2.770;2023-04-25T13:38:12;14.00;66.60
73572;DHT22;61854;48.510;-2.770;2023-04-25T13:40:37;14.10;67.40
73572;DHT22;61854;48.510;-2.770;2023-04-25T13:43:03;14.20;67.30
73572;DHT22;61854;48.510;-2.770;2023-04-25T13:45:29;14.30;66.80
73572;DHT22;61854;48.510;-2.770;2023-04-25T13:47:54;14.30;65.90
73572;DHT22;61854;48.510;-2.770;2023-04-25T13:50:20;14.00;65.60
73572;DHT22;61854;48.510;-2.770;2023-04-25T13:52:46;13.90;66.60
73572;DHT22;61854;48.510;-2.770;2023-04-25T13:55:12;13.90;66.70
73572;DHT22;61854;48.510;-2.770;2023-04-25T13:57:37;13.90;66.80
73572;DHT22;61854;48.510;-2.770;2023-04-25T14:00:04;13.90;66.90
73572;DHT22;61854;48.510;-2.770;2023-04-25T14:02:36;13.90;66.90
73572;DHT22;61854;48.510;-2.770;2023-04-25T14:05:02;13.90;67.20
73572;DHT22;61854;48.510;-2.770;2023-04-25T14:07:28;14.00;66.90
73572;DHT22;61854;48.510;-2.770;2023-04-25T14:09:54;13.90;67.10
73572;DHT22;61854;48.510;-2.770;2023-04-25T14:12:19;14.00;67.40
73572;DHT22;61854;48.510;-2.770;2023-04-25T14:14:45;14.10;67.40
73572;DHT22;61854;48.510;-2.770;2023-04-25T14:17:11;14.00;66.00
73572;DHT22;61854;48.510;-2.770;2023-04-25T14:19:36;13.90;66.30
73572;DHT22;61854;48.510;-2.770;2023-04-25T14:22:03;13.90;66.80
73572;DHT22;61854;48.510;-2.770;2023-04-25T14:24:29;13.80;67.00
73572;DHT22;61854;48.510;-2.770;2023-04-25T14:26:54;13.80;67.00
73572;DHT22;61854;48.510;-2.770;2023-04-25T14:29:20;13.70;66.90
73572;DHT22;61854;48.510;-2.770;2023-04-25T14:31:46;13.80;67.60
73572;DHT22;61854;48.510;-2.770;2023-04-25T14:34:12;13.80;67.00
73572;DHT22;61854;48.510;-2.770;2023-04-25T14:36:37;13.80;66.00
73572;DHT22;61854;48.510;-2.770;2023-04-25T14:39:03;13.60;67.00
73572;DHT22;61854;48.510;-2.770;2023-04-25T14:41:30;13.70;68.10
73572;DHT22;61854;48.510;-2.770;2023-04-25T14:43:55;13.80;67.70
73572;DHT22;61854;48.510;-2.770;2023-04-25T14:46:22;13.80;67.90
73572;DHT22;61854;48.510;-2.770;2023-04-25T14:48:48;13.90;68.00
73572;DHT22;61854;48.510;-2.770;2023-04-25T14:51:14;13.80;68.00
73572;DHT22;61854;48.510;-2.770;2023-04-25T14:53:40;13.80;68.00
73572;DHT22;61854;48.510;-2.770;2023-04-25T14:56:06;13.80;67.60
73572;DHT22;61854;48.510;-2.770;2023-04-25T14:58:32;13.60;67.30
73572;DHT22;61854;48.510;-2.770;2023-04-25T15:00:58;13.60;68.00
73572;DHT22;61854;48.510;-2.770;2023-04-25T15:03:23;13.60;68.40
73572;DHT22;61854;48.510;-2.770;2023-04-25T15:05:49;13.50;69.00
73572;DHT22;61854;48.510;-2.770;2023-04-25T15:08:15;13.50;69.30
73572;DHT22;61854;48.510;-2.770;2023-04-25T15:10:40;13.50;69.70
73572;DHT22;61854;48.510;-2.770;2023-04-25T15:13:06;13.50;69.30
73572;DHT22;61854;48.510;-2.770;2023-04-25T15:15:31;13.50;69.30
73572;DHT22;61854;48.510;-2.770;2023-04-25T15:17:57;13.50;69.00
73572;DHT22;61854;48.510;-2.770;2023-04-25T15:20:23;13.40;68.70
73572;DHT22;61854;48.510;-2.770;2023-04-25T15:22:48;13.40;69.60
73572;DHT22;61854;48.510;-2.770;2023-04-25T15:25:14;13.40;70.30